Pindall, Arkansas
Current Conditions -  °F | °C
As of 1:53 PM on Thursday 23 Oct 2014 (Local Time) from KHRO Reporting Station
Broken Clouds Broken Clouds  
Wind Chill: 16°   Ceiling: 9500
Heat Index: 16°   Visibility: 10mi
Dew Point: 11°   Wind: 3mph
Humidity: 70%   Direction: 190°S
Pressure: 30.17"   Gusts: NA
Location:  36.07°N, 92.88°W
Report Text: KHRO 231853Z AUTO 19003KT 10SM FEW042 SCT075 BKN095 16/11 A3017 RMK AO2 RAB14E48 SLP212 P0000 T01610106
Loading
Personal Weather Stations






























Interactive Weather Map
Tropical Storm Tracking
New forecast layout! Learn more

10-Day Weather Forecast

Advertisements
Track Severe Weather on mobile